Time;durP1;ratioP1;P1;durP2;ratioP2;P2;SDS_P1;SDS_P2;PMS_P1;PMS_P2;Temp;Humidity;BMP_temperature;BMP_pressure;BME280_temperature;BME280_humidity;BME280_pressure;Samples;Min_cycle;Max_cycle;Signal;HPM_P1;HPM_P2
2023/08/29 00:01:10;;;;;;;3.63;2.40;;;14.40;99.90;;;;;;4989757;28;20234;-80
2023/08/29 00:03:37;;;;;;;4.87;2.43;;;14.50;99.90;;;;;;4982470;28;20654;-79
2023/08/29 00:06:04;;;;;;;3.97;2.37;;;14.30;99.90;;;;;;4991111;28;20210;-80
2023/08/29 00:08:35;;;;;;;4.17;1.90;;;14.40;99.90;;;;;;4990594;28;20242;-80
2023/08/29 00:11:05;;;;;;;4.13;2.37;;;14.50;99.90;;;;;;4990861;28;20210;-79
2023/08/29 00:13:32;;;;;;;2.77;2.17;;;14.40;99.90;;;;;;4990312;28;20234;-81
2023/08/29 00:15:59;;;;;;;3.57;2.63;;;14.40;99.90;;;;;;4990453;28;20274;-79
2023/08/29 00:18:26;;;;;;;3.30;2.40;;;14.40;99.90;;;;;;4990306;28;20415;-79
2023/08/29 00:20:53;;;;;;;2.87;2.27;;;14.30;99.90;;;;;;4987886;28;20218;-80
2023/08/29 00:23:19;;;;;;;3.33;2.20;;;14.40;99.90;;;;;;4989761;28;20207;-80
2023/08/29 00:25:46;;;;;;;3.63;2.13;;;14.30;99.90;;;;;;4990012;28;20214;-80
2023/08/29 00:28:13;;;;;;;3.47;2.57;;;14.30;99.90;;;;;;4989907;28;20218;-79
2023/08/29 00:30:40;;;;;;;3.90;2.60;;;14.30;99.90;;;;;;4989693;28;20587;-81
2023/08/29 00:33:11;;;;;;;3.00;2.37;;;14.20;99.90;;;;;;4988557;28;20267;-81
2023/08/29 00:35:39;;;;;;;4.57;2.63;;;14.20;99.90;;;;;;4990034;28;20659;-83
2023/08/29 00:38:06;;;;;;;3.77;2.43;;;14.20;99.90;;;;;;4989343;28;20204;-82
2023/08/29 00:40:34;;;;;;;3.13;2.50;;;14.10;99.90;;;;;;4988446;28;20485;-80
2023/08/29 00:43:02;;;;;;;2.60;2.20;;;14.10;99.90;;;;;;4982032;28;20293;-82
2023/08/29 00:45:37;;;;;;;5.13;2.40;;;14.10;99.90;;;;;;4989352;28;20223;-81
2023/08/29 00:48:06;;;;;;;4.37;2.33;;;14.10;99.90;;;;;;4989699;28;20253;-80
2023/08/29 00:50:34;;;;;;;3.73;2.57;;;14.00;99.90;;;;;;4987825;28;20285;-81
2023/08/29 00:53:05;;;;;;;4.03;2.30;;;14.00;99.90;;;;;;4988986;28;20287;-81
2023/08/29 00:55:34;;;;;;;4.57;2.40;;;14.00;99.90;;;;;;4989374;28;20211;-80
2023/08/29 00:58:04;;;;;;;5.50;2.70;;;14.00;99.90;;;;;;4989781;28;20220;-82
2023/08/29 01:00:32;;;;;;;3.77;2.60;;;14.00;99.90;;;;;;4989266;28;20314;-81
2023/08/29 01:03:00;;;;;;;6.53;2.43;;;14.00;99.90;;;;;;4990088;28;20246;-81
2023/08/29 01:05:30;;;;;;;4.10;2.23;;;14.10;99.90;;;;;;4989339;28;20287;-82
2023/08/29 01:07:59;;;;;;;3.47;2.13;;;13.90;99.90;;;;;;4978580;28;20576;-81
2023/08/29 01:10:36;;;;;;;3.40;2.70;;;13.90;99.90;;;;;;4995344;28;20309;-80
2023/08/29 01:13:25;;;;;;;4.17;2.20;;;13.90;99.90;;;;;;4993449;28;20704;-83
2023/08/29 01:15:55;;;;;;;3.47;2.43;;;13.90;99.90;;;;;;4992423;28;20582;-81
2023/08/29 01:18:24;;;;;;;5.33;2.77;;;13.90;99.90;;;;;;4992918;28;20226;-81
2023/08/29 01:21:00;;;;;;;3.70;2.70;;;13.80;99.90;;;;;;4991654;28;20211;-83
2023/08/29 01:23:55;;;;;;;4.60;2.67;;;13.80;99.90;;;;;;4992546;28;20215;-82
2023/08/29 01:26:22;;;;;;;7.03;2.67;;;13.70;99.90;;;;;;4992244;28;20294;-81
2023/08/29 01:28:49;;;;;;;5.53;2.97;;;13.70;99.90;;;;;;4987102;28;20214;-79
2023/08/29 01:31:19;;;;;;;2.97;2.07;;;13.70;99.90;;;;;;4992901;28;20578;-81
2023/08/29 01:33:47;;;;;;;3.37;2.40;;;13.70;99.90;;;;;;4992272;28;20223;-80
2023/08/29 01:36:14;;;;;;;4.83;2.53;;;13.70;99.90;;;;;;4992135;28;20214;-82
2023/08/29 01:38:41;;;;;;;4.87;2.37;;;13.70;99.90;;;;;;4979516;28;20235;-82
2023/08/29 01:41:07;;;;;;;3.73;2.10;;;13.60;99.90;;;;;;4990905;28;20573;-82
2023/08/29 01:43:34;;;;;;;3.73;2.60;;;13.70;99.90;;;;;;4985391;28;20575;-81
2023/08/29 01:46:01;;;;;;;3.37;2.37;;;13.60;99.90;;;;;;4990954;28;20709;-80
2023/08/29 01:48:32;;;;;;;3.83;2.57;;;13.50;99.90;;;;;;4991196;28;20218;-82
2023/08/29 01:50:59;;;;;;;3.50;2.30;;;13.50;99.90;;;;;;4991544;28;20203;-82
2023/08/29 01:53:26;;;;;;;4.93;2.93;;;13.50;99.90;;;;;;4990719;28;20690;-82
2023/08/29 01:55:53;;;;;;;5.30;2.30;;;13.50;99.90;;;;;;4989687;28;20298;-82
2023/08/29 01:58:20;;;;;;;4.30;2.10;;;13.40;99.90;;;;;;4992311;28;20702;-81
2023/08/29 02:00:48;;;;;;;5.10;2.20;;;13.50;99.90;;;;;;4992264;28;20259;-82
2023/08/29 02:03:15;;;;;;;4.17;2.57;;;13.40;99.90;;;;;;4988719;28;20200;-81
2023/08/29 02:05:42;;;;;;;3.43;2.47;;;13.30;99.90;;;;;;4991700;28;20578;-82
2023/08/29 02:08:09;;;;;;;4.37;2.30;;;13.40;99.90;;;;;;4990746;28;20269;-82
2023/08/29 02:10:36;;;;;;;5.73;2.63;;;13.40;99.90;;;;;;4991311;28;20207;-82
2023/08/29 02:13:03;;;;;;;4.47;2.50;;;13.40;99.90;;;;;;4991645;28;20306;-80
2023/08/29 02:15:30;;;;;;;3.90;2.70;;;13.40;99.90;;;;;;4990476;28;20285;-81
2023/08/29 02:17:57;;;;;;;3.60;2.37;;;13.30;99.90;;;;;;4991683;28;20577;-81
2023/08/29 02:20:26;;;;;;;3.13;2.40;;;13.40;99.90;;;;;;4990341;28;20560;-80
2023/08/29 02:22:52;;;;;;;5.13;2.33;;;13.30;99.90;;;;;;4990799;28;20211;-82
2023/08/29 02:25:19;;;;;;;3.03;2.13;;;13.30;99.90;;;;;;4990113;28;20230;-82
2023/08/29 02:27:46;;;;;;;3.30;1.97;;;13.30;99.90;;;;;;4991667;28;20637;-80
2023/08/29 02:30:13;;;;;;;4.57;2.30;;;13.20;99.90;;;;;;4991425;28;20639;-82
2023/08/29 02:32:40;;;;;;;3.70;2.40;;;13.20;99.90;;;;;;4991733;28;20242;-83
2023/08/29 02:35:08;;;;;;;4.10;2.80;;;13.20;99.90;;;;;;4991146;28;20322;-82
2023/08/29 02:37:35;;;;;;;4.70;2.97;;;13.20;99.90;;;;;;4990147;28;20218;-82
2023/08/29 02:40:07;;;;;;;4.13;3.00;;;13.20;99.90;;;;;;4991369;28;20244;-81
2023/08/29 02:42:35;;;;;;;3.63;2.40;;;13.10;99.90;;;;;;4985841;28;20543;-81
2023/08/29 02:45:03;;;;;;;3.50;2.23;;;13.10;99.90;;;;;;4991137;28;20251;-81
2023/08/29 02:47:30;;;;;;;2.43;2.03;;;13.10;99.90;;;;;;4991067;28;20231;-81
2023/08/29 02:49:56;;;;;;;4.40;2.37;;;13.10;99.90;;;;;;4990536;28;20226;-81
2023/08/29 02:52:23;;;;;;;4.63;2.97;;;13.00;99.90;;;;;;4990831;28;20211;-81
2023/08/29 02:54:50;;;;;;;3.53;2.30;;;13.00;99.90;;;;;;4990749;28;20234;-81
2023/08/29 02:57:17;;;;;;;3.47;2.27;;;13.00;99.90;;;;;;4990318;28;20208;-81
2023/08/29 02:59:44;;;;;;;5.27;2.43;;;12.90;99.90;;;;;;4985073;28;20200;-80
2023/08/29 03:02:10;;;;;;;5.03;2.60;;;12.90;99.90;;;;;;4986126;28;20247;-81
2023/08/29 03:04:37;;;;;;;3.63;2.47;;;12.90;99.90;;;;;;4990966;28;20254;-82
2023/08/29 03:07:05;;;;;;;3.23;2.50;;;12.90;99.90;;;;;;4991054;28;20370;-81
2023/08/29 03:09:33;;;;;;;5.00;2.73;;;12.80;99.90;;;;;;4990659;28;20263;-80
2023/08/29 03:12:00;;;;;;;5.73;2.67;;;12.70;99.90;;;;;;4990066;28;20207;-81
2023/08/29 03:14:27;;;;;;;2.73;2.27;;;12.80;99.90;;;;;;4990690;28;20246;-81
2023/08/29 03:16:54;;;;;;;5.83;2.40;;;12.80;99.90;;;;;;4989512;28;20793;-82
2023/08/29 03:19:21;;;;;;;3.77;2.27;;;12.80;99.90;;;;;;4990723;28;20210;-81
2023/08/29 03:21:48;;;;;;;2.63;2.17;;;12.70;99.90;;;;;;4990481;28;20199;-81
2023/08/29 03:24:15;;;;;;;4.30;2.53;;;12.70;99.90;;;;;;4989217;28;20228;-83
2023/08/29 03:26:42;;;;;;;3.50;2.80;;;12.70;99.90;;;;;;4989554;28;20265;-81
2023/08/29 03:29:12;;;;;;;4.13;2.50;;;12.70;99.90;;;;;;4990428;28;20294;-81
2023/08/29 03:31:38;;;;;;;4.23;2.50;;;12.70;99.90;;;;;;4989958;28;20617;-81
2023/08/29 03:34:08;;;;;;;4.10;2.60;;;12.70;99.90;;;;;;4989694;28;20631;-81
2023/08/29 03:36:35;;;;;;;4.93;2.77;;;12.60;99.90;;;;;;4982970;28;20211;-81
2023/08/29 03:39:03;;;;;;;6.93;2.93;;;12.60;99.90;;;;;;4990248;28;20273;-81
2023/08/29 03:41:29;;;;;;;4.43;3.00;;;12.60;99.90;;;;;;4975966;28;20203;-82
2023/08/29 03:43:56;;;;;;;3.47;2.30;;;12.60;99.90;;;;;;4989841;28;20219;-83
2023/08/29 03:46:23;;;;;;;3.77;2.43;;;12.60;99.90;;;;;;4989937;28;20226;-81
2023/08/29 03:48:51;;;;;;;6.87;2.97;;;12.60;99.90;;;;;;4990384;28;20203;-81
2023/08/29 03:51:18;;;;;;;2.43;2.20;;;12.60;99.90;;;;;;4988812;28;20206;-84
2023/08/29 03:53:45;;;;;;;3.87;2.50;;;12.50;99.90;;;;;;4990323;28;20241;-81
2023/08/29 03:56:12;;;;;;;4.97;2.57;;;12.50;99.90;;;;;;4989607;28;20280;-81
2023/08/29 03:58:39;;;;;;;3.20;2.30;;;12.50;99.90;;;;;;4989268;28;20206;-81
2023/08/29 04:01:07;;;;;;;4.33;2.70;;;12.50;99.90;;;;;;4990181;28;20244;-82
2023/08/29 04:03:34;;;;;;;5.70;2.80;;;12.50;99.90;;;;;;4988813;28;20261;-81
2023/08/29 04:06:03;;;;;;;4.73;2.70;;;12.50;99.90;;;;;;4989994;28;20210;-81
2023/08/29 04:08:30;;;;;;;4.83;2.67;;;12.40;99.90;;;;;;4988691;28;20207;-81
2023/08/29 04:10:57;;;;;;;3.97;2.27;;;12.50;99.90;;;;;;4990450;28;20220;-81
2023/08/29 04:13:24;;;;;;;4.13;2.20;;;12.40;99.90;;;;;;4988330;28;20214;-81
2023/08/29 04:15:50;;;;;;;2.57;2.33;;;12.30;99.90;;;;;;4989865;28;20234;-82
2023/08/29 04:18:17;;;;;;;4.80;2.60;;;12.30;99.90;;;;;;4990448;28;20293;-81
2023/08/29 04:20:44;;;;;;;5.70;2.43;;;12.30;99.90;;;;;;4989519;28;20243;-82
2023/08/29 04:23:11;;;;;;;3.97;2.13;;;12.30;99.90;;;;;;4988443;28;20216;-82
2023/08/29 04:25:38;;;;;;;3.73;2.43;;;12.20;99.90;;;;;;4989697;28;20225;-82
2023/08/29 04:28:05;;;;;;;6.37;2.50;;;12.20;99.90;;;;;;4989582;28;20296;-80
2023/08/29 04:30:33;;;;;;;2.97;2.10;;;12.10;99.90;;;;;;4989214;28;20760;-82
2023/08/29 04:33:00;;;;;;;4.57;2.03;;;12.10;99.90;;;;;;4989753;28;20272;-81
2023/08/29 04:35:27;;;;;;;2.40;2.13;;;12.10;99.90;;;;;;4987751;28;20669;-80
2023/08/29 04:37:54;;;;;;;2.97;2.07;;;12.10;99.90;;;;;;4989949;28;20207;-81
2023/08/29 04:40:22;;;;;;;5.57;2.17;;;12.10;99.90;;;;;;4989530;28;20214;-80
2023/08/29 04:42:51;;;;;;;4.03;2.10;;;12.10;99.90;;;;;;4989084;28;20213;-78
2023/08/29 04:45:19;;;;;;;2.20;1.63;;;12.10;99.90;;;;;;4991155;28;20236;-80
2023/08/29 04:47:46;;;;;;;3.30;2.17;;;12.00;99.90;;;;;;4993322;28;20674;-81
2023/08/29 04:50:14;;;;;;;3.17;1.93;;;12.00;99.90;;;;;;4992324;28;20292;-80
2023/08/29 04:52:41;;;;;;;2.10;1.80;;;12.00;99.90;;;;;;4979340;28;20673;-79
2023/08/29 04:55:08;;;;;;;2.63;2.00;;;12.00;99.90;;;;;;4984553;28;20286;-81
2023/08/29 04:57:36;;;;;;;4.43;2.30;;;11.90;99.90;;;;;;4980554;28;20241;-80
2023/08/29 05:00:05;;;;;;;3.83;2.23;;;11.90;99.90;;;;;;4992825;28;20472;-80
2023/08/29 05:02:33;;;;;;;4.33;2.03;;;11.90;99.90;;;;;;4980499;28;20344;-80
2023/08/29 05:05:00;;;;;;;2.37;2.00;;;11.90;99.90;;;;;;4992558;28;20210;-82
2023/08/29 05:07:27;;;;;;;2.33;2.00;;;11.90;99.90;;;;;;4988544;28;20221;-80
2023/08/29 05:09:55;;;;;;;4.03;2.10;;;11.90;99.90;;;;;;4992860;28;20317;-80
2023/08/29 05:12:25;;;;;;;3.10;2.00;;;11.90;99.90;;;;;;4991685;28;20296;-80
2023/08/29 05:14:55;;;;;;;2.17;1.90;;;11.90;99.90;;;;;;4988274;28;20213;-82
2023/08/29 05:17:22;;;;;;;2.77;2.17;;;11.90;99.90;;;;;;4984903;28;20222;-83
2023/08/29 05:19:50;;;;;;;2.50;2.20;;;11.90;99.90;;;;;;4986090;28;20233;-80
2023/08/29 05:22:17;;;;;;;2.57;2.07;;;12.00;99.90;;;;;;4991643;28;20252;-79
2023/08/29 05:24:44;;;;;;;2.23;1.90;;;12.00;99.90;;;;;;4992503;28;20231;-80
2023/08/29 05:27:11;;;;;;;4.37;2.03;;;12.00;99.90;;;;;;4992908;28;20221;-81
2023/08/29 05:29:39;;;;;;;2.77;2.40;;;12.00;99.90;;;;;;4990556;28;20724;-81
2023/08/29 05:32:05;;;;;;;3.30;2.40;;;12.10;99.90;;;;;;4990755;28;20215;-82
2023/08/29 05:34:32;;;;;;;5.67;3.17;;;12.10;99.90;;;;;;4990368;28;20246;-80
2023/08/29 05:36:59;;;;;;;4.77;2.97;;;12.20;99.90;;;;;;4986669;28;20209;-81
2023/08/29 05:39:26;;;;;;;5.00;2.90;;;12.20;99.90;;;;;;4991958;28;20705;-80
2023/08/29 05:41:53;;;;;;;3.97;3.10;;;12.20;99.90;;;;;;4981674;28;20202;-83
2023/08/29 05:44:20;;;;;;;5.33;3.07;;;12.20;99.90;;;;;;4975703;28;20208;-83
2023/08/29 05:46:47;;;;;;;3.37;2.77;;;12.30;99.90;;;;;;4977376;28;20234;-80
2023/08/29 05:49:16;;;;;;;5.40;2.83;;;12.30;99.90;;;;;;4991234;28;20219;-80
2023/08/29 05:51:43;;;;;;;3.80;3.03;;;12.30;99.90;;;;;;4989743;28;20239;-80
2023/08/29 05:54:10;;;;;;;6.43;2.87;;;12.50;99.90;;;;;;4989833;28;20229;-82
2023/08/29 05:56:37;;;;;;;5.00;2.83;;;12.50;99.90;;;;;;4987794;28;20238;-80
2023/08/29 05:59:05;;;;;;;4.23;2.90;;;12.50;99.90;;;;;;4991762;28;20226;-80
2023/08/29 06:01:35;;;;;;;5.57;3.00;;;12.50;99.90;;;;;;4994876;28;20262;-81
2023/08/29 06:04:04;;;;;;;5.60;2.73;;;12.70;99.90;;;;;;4984155;28;20567;-79
2023/08/29 06:06:31;;;;;;;4.07;2.73;;;12.70;99.90;;;;;;4989611;28;20199;-81
2023/08/29 06:08:59;;;;;;;4.27;2.80;;;12.70;99.90;;;;;;4991614;28;20277;-79
2023/08/29 06:11:29;;;;;;;5.73;3.00;;;12.70;99.90;;;;;;4998927;28;20202;-87
2023/08/29 06:13:56;;;;;;;4.30;2.93;;;12.80;99.90;;;;;;4981119;28;20564;-77
2023/08/29 06:16:22;;;;;;;4.57;2.60;;;12.90;99.90;;;;;;4990842;28;20269;-79
2023/08/29 06:18:49;;;;;;;6.50;3.00;;;13.00;99.90;;;;;;4991912;28;20207;-79
2023/08/29 06:21:17;;;;;;;4.17;2.87;;;13.10;99.90;;;;;;4991909;28;20563;-78
2023/08/29 06:23:43;;;;;;;3.97;2.87;;;13.20;99.90;;;;;;4991604;28;20215;-78
2023/08/29 06:26:10;;;;;;;3.90;2.93;;;13.40;99.90;;;;;;4991772;28;20290;-78
2023/08/29 06:28:37;;;;;;;3.70;3.03;;;13.50;99.90;;;;;;4991796;28;20547;-79
2023/08/29 06:31:05;;;;;;;4.33;2.87;;;13.80;99.90;;;;;;4989856;28;20219;-78
2023/08/29 06:33:38;;;;;;;6.43;2.70;;;14.10;99.90;;;;;;4991924;28;20210;-80
2023/08/29 06:36:05;;;;;;;5.33;2.40;;;14.50;99.90;;;;;;4986002;28;20714;-81
2023/08/29 06:38:33;;;;;;;4.20;2.23;;;14.90;99.90;;;;;;4978691;28;20215;-81
2023/08/29 06:41:03;;;;;;;2.33;2.13;;;15.50;99.90;;;;;;4986983;28;20250;-83
2023/08/29 06:43:30;;;;;;;2.55;2.17;;;16.30;99.90;;;;;;4991831;28;20213;-80
2023/08/29 06:45:56;;;;;;;2.15;1.65;;;16.80;99.90;;;;;;4991611;28;20227;-83
2023/08/29 06:48:23;;;;;;;2.83;1.83;;;17.30;99.90;;;;;;4991140;28;20207;-81
2023/08/29 06:50:50;;;;;;;2.20;2.00;;;17.90;99.90;;;;;;4990634;28;20274;-82
2023/08/29 06:53:17;;;;;;;2.78;1.83;;;18.40;99.90;;;;;;4991963;28;20211;-82
2023/08/29 06:55:46;;;;;;;3.08;1.75;;;19.00;99.90;;;;;;4990269;28;20233;-82
2023/08/29 06:58:13;;;;;;;2.63;1.95;;;19.20;99.90;;;;;;4991392;28;20215;-82
2023/08/29 07:00:40;;;;;;;2.28;1.70;;;19.50;99.90;;;;;;4986014;28;20215;-82
2023/08/29 07:03:08;;;;;;;4.05;2.05;;;19.80;99.90;;;;;;4988086;28;20230;-81
2023/08/29 07:05:35;;;;;;;2.92;1.83;;;20.40;99.90;;;;;;4986183;28;20213;-82
2023/08/29 07:08:03;;;;;;;5.93;1.88;;;21.20;99.90;;;;;;4985475;28;20211;-82
2023/08/29 07:10:31;;;;;;;1.83;1.30;;;21.90;99.90;;;;;;4991107;28;20253;-81
2023/08/29 07:12:57;;;;;;;3.05;1.33;;;22.60;99.90;;;;;;4986315;28;20207;-82
2023/08/29 07:15:24;;;;;;;2.45;1.10;;;23.00;99.90;;;;;;4976785;28;20281;-85
2023/08/29 07:17:53;;;;;;;3.13;1.25;;;23.20;99.90;;;;;;4989559;28;20201;-81
2023/08/29 07:20:20;;;;;;;1.15;0.85;;;23.40;99.90;;;;;;4991067;28;20209;-83
2023/08/29 07:22:47;;;;;;;1.67;0.80;;;23.70;99.90;;;;;;4990812;28;20204;-82
2023/08/29 07:25:15;;;;;;;2.13;0.82;;;23.80;99.90;;;;;;4989294;28;20552;-82
2023/08/29 07:27:42;;;;;;;2.03;1.25;;;23.90;99.90;;;;;;4990937;28;20258;-83
2023/08/29 07:30:14;;;;;;;3.78;1.00;;;23.80;99.90;;;;;;4990705;28;20215;-81
2023/08/29 07:32:42;;;;;;;1.23;0.80;;;23.70;99.90;;;;;;4989614;28;20211;-81
2023/08/29 07:35:09;;;;;;;3.58;1.00;;;23.50;99.90;;;;;;4990300;28;20253;-82
2023/08/29 07:37:36;;;;;;;1.90;0.90;;;23.50;99.90;;;;;;4990475;28;20276;-82
2023/08/29 07:40:05;;;;;;;1.42;0.98;;;23.40;99.90;;;;;;4989106;28;20211;-81
2023/08/29 07:42:32;;;;;;;1.77;0.80;;;23.30;99.90;;;;;;4990694;28;20211;-82
2023/08/29 07:44:59;;;;;;;2.97;0.85;;;23.20;99.90;;;;;;4977782;28;20648;-82
2023/08/29 07:47:26;;;;;;;1.52;0.93;;;22.80;99.90;;;;;;4989789;28;20293;-82
2023/08/29 07:49:53;;;;;;;1.80;0.70;;;22.70;99.90;;;;;;4990410;28;20294;-82
2023/08/29 07:52:19;;;;;;;3.25;0.90;;;22.50;99.90;;;;;;4990623;28;20207;-83
2023/08/29 07:54:46;;;;;;;2.47;1.20;;;22.20;99.90;;;;;;4990760;28;20241;-80
2023/08/29 07:57:13;;;;;;;3.13;1.20;;;21.90;99.90;;;;;;4993003;28;20286;-82
2023/08/29 07:59:40;;;;;;;1.25;1.05;;;21.70;99.90;;;;;;4988306;28;20210;-80
2023/08/29 08:02:07;;;;;;;3.08;1.20;;;21.40;99.90;;;;;;4988436;28;20226;-80
2023/08/29 08:04:34;;;;;;;2.67;1.00;;;21.30;99.90;;;;;;4989359;28;20207;-81
2023/08/29 08:07:01;;;;;;;2.75;1.20;;;21.00;99.90;;;;;;4990270;28;20359;-81
2023/08/29 08:09:28;;;;;;;2.20;1.10;;;20.90;99.90;;;;;;4988871;28;20282;-82
2023/08/29 08:11:55;;;;;;;1.52;1.17;;;20.80;99.90;;;;;;4990140;28;20305;-81
2023/08/29 08:14:22;;;;;;;1.85;1.00;;;20.70;99.90;;;;;;4990805;28;20205;-82
2023/08/29 08:16:49;;;;;;;1.38;0.70;;;20.70;99.90;;;;;;4988756;28;20234;-80
2023/08/29 08:19:16;;;;;;;2.97;1.30;;;20.70;99.90;;;;;;4992083;28;20673;-81
2023/08/29 08:21:43;;;;;;;1.88;1.00;;;20.60;99.90;;;;;;4992514;28;20211;-80
2023/08/29 08:24:10;;;;;;;3.78;1.00;;;20.50;99.90;;;;;;4994520;28;20214;-82
2023/08/29 08:26:36;;;;;;;0.93;0.85;;;20.40;99.90;;;;;;4992580;28;20578;-80
2023/08/29 08:29:04;;;;;;;1.75;0.90;;;20.40;99.90;;;;;;4992448;28;20701;-81
2023/08/29 08:31:31;;;;;;;2.40;1.00;;;20.50;99.90;;;;;;4993902;28;20690;-79
2023/08/29 08:33:58;;;;;;;2.33;1.00;;;20.60;99.90;;;;;;4993614;28;20203;-81
2023/08/29 08:36:25;;;;;;;2.67;1.00;;;20.70;99.90;;;;;;4993057;28;20286;-81
2023/08/29 08:38:52;;;;;;;2.67;0.90;;;20.80;99.90;;;;;;4993738;28;20219;-81
2023/08/29 08:41:19;;;;;;;1.80;1.05;;;20.90;99.90;;;;;;4993551;28;20215;-83
2023/08/29 08:43:48;;;;;;;1.23;1.10;;;21.20;99.90;;;;;;4994128;28;20207;-82
2023/08/29 08:46:16;;;;;;;3.58;1.20;;;21.30;99.90;;;;;;4993798;28;20318;-82
2023/08/29 08:48:44;;;;;;;1.42;1.00;;;21.50;99.90;;;;;;4993571;28;20495;-81
2023/08/29 08:51:12;;;;;;;4.45;1.10;;;21.70;99.90;;;;;;4993551;28;20203;-82
2023/08/29 08:53:40;;;;;;;2.53;1.17;;;21.80;99.90;;;;;;4993700;28;20517;-80
2023/08/29 08:56:08;;;;;;;1.50;1.20;;;22.10;99.90;;;;;;4993014;28;20275;-81
2023/08/29 08:58:36;;;;;;;2.42;1.08;;;22.20;99.90;;;;;;4996902;28;20258;-80
2023/08/29 09:01:04;;;;;;;2.28;0.70;;;22.20;99.90;;;;;;4994133;28;20219;-81
2023/08/29 09:03:31;;;;;;;1.95;1.00;;;22.30;99.90;;;;;;4993023;28;20231;-81
2023/08/29 09:05:58;;;;;;;1.52;0.80;;;22.50;99.90;;;;;;5008344;28;20307;-81
2023/08/29 09:08:25;;;;;;;2.15;0.75;;;22.70;99.90;;;;;;4992951;28;20302;-80
2023/08/29 09:10:53;;;;;;;1.08;0.90;;;22.70;99.90;;;;;;4993479;28;20207;-82
2023/08/29 09:13:20;;;;;;;2.13;1.00;;;22.90;99.90;;;;;;4991888;28;20211;-80
2023/08/29 09:15:47;;;;;;;1.58;0.80;;;22.80;99.90;;;;;;4992696;28;20250;-81
2023/08/29 09:18:26;;;;;;;2.78;0.95;;;22.70;99.90;;;;;;4992635;28;20211;-81
2023/08/29 09:20:53;;;;;;;1.58;1.00;;;22.60;99.90;;;;;;4991724;28;20571;-80
2023/08/29 09:23:25;;;;;;;2.60;1.00;;;22.50;99.90;;;;;;4993317;28;20207;-79
2023/08/29 09:25:56;;;;;;;1.48;0.77;;;22.60;99.90;;;;;;4991942;28;20207;-80
2023/08/29 09:28:27;;;;;;;1.15;0.90;;;22.50;99.90;;;;;;4992065;28;20323;-80
2023/08/29 09:30:55;;;;;;;1.60;0.88;;;22.60;99.90;;;;;;4990492;28;20370;-80
2023/08/29 09:33:22;;;;;;;0.85;0.68;;;22.80;99.90;;;;;;4992968;28;20299;-80
2023/08/29 09:35:50;;;;;;;0.93;0.70;;;22.70;99.90;;;;;;4991263;28;20277;-81
2023/08/29 09:38:18;;;;;;;2.25;0.82;;;22.70;99.90;;;;;;4993074;28;20261;-82
2023/08/29 09:40:49;;;;;;;1.30;0.90;;;22.60;99.90;;;;;;4980327;28;20222;-84
2023/08/29 09:43:17;;;;;;;1.23;0.90;;;22.60;99.90;;;;;;4984392;28;20211;-81
2023/08/29 09:45:52;;;;;;;1.33;1.02;;;22.40;99.90;;;;;;4990854;28;20257;-80
2023/08/29 09:48:19;;;;;;;1.58;1.00;;;22.50;99.90;;;;;;4990637;28;20546;-80
2023/08/29 09:50:47;;;;;;;1.15;0.80;;;22.50;99.90;;;;;;4991338;28;20206;-82
2023/08/29 09:53:19;;;;;;;1.10;0.98;;;22.30;99.90;;;;;;4992104;28;20210;-80
2023/08/29 09:55:53;;;;;;;1.85;1.00;;;22.40;99.90;;;;;;4989188;28;20237;-82
2023/08/29 09:58:22;;;;;;;2.75;1.10;;;22.50;99.90;;;;;;4990876;28;20211;-81
2023/08/29 10:00:51;;;;;;;2.95;1.48;;;22.60;99.90;;;;;;4991603;28;20698;-82
2023/08/29 10:03:19;;;;;;;1.67;1.23;;;22.80;99.90;;;;;;4990420;28;20245;-80
2023/08/29 10:05:48;;;;;;;3.10;1.08;;;23.00;99.90;;;;;;4992371;28;20210;-81
2023/08/29 10:08:24;;;;;;;3.17;1.00;;;23.20;99.90;;;;;;4988662;28;20207;-80
2023/08/29 10:10:55;;;;;;;1.15;1.00;;;23.30;99.90;;;;;;4990949;28;20206;-80
2023/08/29 10:13:34;;;;;;;1.67;1.00;;;23.20;99.90;;;;;;4980027;28;20735;-81
2023/08/29 10:16:03;;;;;;;1.58;0.95;;;23.20;99.90;;;;;;4981959;28;20234;-80
2023/08/29 10:18:44;;;;;;;1.27;1.02;;;23.00;99.90;;;;;;4980516;28;20382;-80
2023/08/29 10:21:26;;;;;;;2.20;0.93;;;23.00;99.90;;;;;;4988197;28;20702;-81
2023/08/29 10:24:05;;;;;;;1.08;0.82;;;22.80;99.90;;;;;;4985589;28;20195;-82
2023/08/29 10:26:40;;;;;;;2.08;0.98;;;22.50;99.90;;;;;;4989839;28;20211;-81
2023/08/29 10:29:08;;;;;;;1.27;1.10;;;22.50;99.90;;;;;;4989912;28;20211;-83
2023/08/29 10:31:42;;;;;;;1.55;1.10;;;22.40;99.90;;;;;;4990031;28;20302;-80
2023/08/29 10:34:09;;;;;;;1.65;1.10;;;22.40;99.90;;;;;;4988898;28;20258;-81
2023/08/29 10:36:40;;;;;;;1.92;1.40;;;22.40;99.90;;;;;;4986633;28;20235;-82
2023/08/29 10:39:13;;;;;;;1.20;1.10;;;22.50;99.90;;;;;;4992447;28;20210;-81
2023/08/29 10:41:46;;;;;;;2.30;1.20;;;22.40;99.90;;;;;;4990765;28;20637;-80
2023/08/29 10:44:28;;;;;;;1.20;1.10;;;22.30;99.90;;;;;;4990049;28;20204;-81
2023/08/29 10:47:16;;;;;;;1.88;1.13;;;22.30;99.90;;;;;;4985083;28;20726;-81
2023/08/29 10:49:44;;;;;;;1.27;1.17;;;22.30;99.90;;;;;;4994027;28;20211;-79
2023/08/29 10:52:11;;;;;;;2.65;1.05;;;22.30;99.90;;;;;;4993015;28;20203;-79
2023/08/29 10:54:38;;;;;;;2.28;1.30;;;22.40;99.90;;;;;;4993020;28;20215;-82
2023/08/29 10:57:28;;;;;;;2.28;1.20;;;22.40;99.90;;;;;;4991523;28;20230;-79
2023/08/29 10:59:55;;;;;;;2.28;0.95;;;22.40;99.90;;;;;;4991392;28;20245;-80
2023/08/29 11:02:25;;;;;;;1.50;1.10;;;22.40;99.90;;;;;;4991921;28;20739;-78
2023/08/29 11:05:05;;;;;;;0.73;0.73;;;22.50;99.90;;;;;;4988923;28;20199;-79
2023/08/29 11:07:32;;;;;;;1.17;1.08;;;22.60;99.90;;;;;;4992850;28;20202;-81
2023/08/29 11:10:16;;;;;;;1.98;0.90;;;22.60;99.90;;;;;;4992042;28;20306;-78
2023/08/29 11:13:09;;;;;;;1.40;0.95;;;22.60;99.90;;;;;;4986784;28;20200;-79
2023/08/29 11:15:51;;;;;;;1.75;1.05;;;22.80;99.90;;;;;;4993739;28;20231;-78
2023/08/29 11:18:22;;;;;;;1.17;1.00;;;22.90;99.90;;;;;;4998079;28;20695;-79
2023/08/29 11:20:51;;;;;;;2.10;1.00;;;23.00;99.90;;;;;;4997858;28;20676;-79
2023/08/29 11:23:23;;;;;;;1.50;1.15;;;23.00;99.90;;;;;;4997161;28;20238;-80
2023/08/29 11:25:51;;;;;;;1.83;1.10;;;23.20;99.90;;;;;;4997953;28;20208;-80
2023/08/29 11:28:18;;;;;;;1.60;0.98;;;23.30;99.90;;;;;;4996644;28;20199;-80
2023/08/29 11:30:46;;;;;;;1.48;1.20;;;23.40;99.90;;;;;;4995496;28;20263;-79
2023/08/29 11:33:14;;;;;;;1.95;1.30;;;23.50;99.90;;;;;;4994515;28;20238;-79
2023/08/29 11:35:44;;;;;;;2.58;1.65;;;23.30;99.90;;;;;;4993361;28;20235;-82
2023/08/29 11:38:11;;;;;;;2.10;1.58;;;23.50;99.90;;;;;;4985609;28;20298;-83
2023/08/29 11:40:39;;;;;;;1.23;1.05;;;23.60;99.90;;;;;;5006212;28;20215;-81
2023/08/29 11:43:27;;;;;;;1.40;1.00;;;23.60;99.90;;;;;;4980462;28;20221;-83
2023/08/29 11:46:14;;;;;;;1.52;1.00;;;23.80;99.90;;;;;;4987322;28;20675;-80
2023/08/29 11:48:43;;;;;;;3.42;1.30;;;24.00;99.90;;;;;;4989633;28;20287;-79
2023/08/29 11:51:10;;;;;;;1.50;1.40;;;24.20;99.90;;;;;;4991351;28;20213;-79
2023/08/29 11:53:38;;;;;;;1.85;1.75;;;24.40;99.90;;;;;;4989613;28;20203;-79
2023/08/29 11:56:10;;;;;;;2.22;2.00;;;24.60;99.90;;;;;;4989497;28;20643;-80
2023/08/29 11:58:39;;;;;;;2.08;1.65;;;24.70;99.90;;;;;;4989336;28;20195;-80
2023/08/29 12:01:09;;;;;;;2.53;1.70;;;24.60;99.90;;;;;;4990340;28;20238;-78
2023/08/29 12:03:38;;;;;;;3.20;1.90;;;24.60;99.90;;;;;;4988870;28;20235;-80
2023/08/29 12:06:12;;;;;;;2.20;1.90;;;24.60;99.90;;;;;;4990567;28;20570;-78
2023/08/29 12:08:44;;;;;;;2.00;1.70;;;24.50;99.90;;;;;;4990500;28;20205;-79
2023/08/29 12:11:14;;;;;;;2.58;1.50;;;24.40;99.90;;;;;;4990705;28;20210;-82
2023/08/29 12:13:57;;;;;;;2.00;1.30;;;24.10;99.90;;;;;;4992520;28;20237;-82
2023/08/29 12:16:23;;;;;;;1.50;1.40;;;24.00;99.90;;;;;;4991355;28;20234;-82
2023/08/29 12:18:50;;;;;;;1.98;1.50;;;23.80;99.90;;;;;;4991920;28;20199;-80
2023/08/29 12:21:20;;;;;;;2.25;1.55;;;23.80;99.90;;;;;;4989670;28;20218;-81
2023/08/29 12:23:47;;;;;;;2.97;2.00;;;23.70;99.90;;;;;;4991038;28;20210;-80
2023/08/29 12:26:14;;;;;;;2.60;2.05;;;23.60;99.90;;;;;;4989463;28;20649;-84
2023/08/29 12:28:42;;;;;;;3.00;2.17;;;23.50;99.90;;;;;;4990989;28;20214;-83
2023/08/29 12:31:12;;;;;;;2.00;1.80;;;23.50;99.90;;;;;;4987823;28;20616;-81
2023/08/29 12:33:39;;;;;;;3.85;1.90;;;23.40;99.90;;;;;;4987915;28;20214;-85
2023/08/29 12:36:06;;;;;;;1.98;1.50;;;23.50;99.90;;;;;;4986965;28;20227;-81
2023/08/29 12:38:33;;;;;;;3.35;2.17;;;23.60;99.90;;;;;;4989966;28;20636;-82
2023/08/29 12:41:00;;;;;;;2.60;1.70;;;23.60;99.90;;;;;;4985411;28;20219;-80
2023/08/29 12:43:27;;;;;;;2.78;1.83;;;23.60;99.90;;;;;;4985061;28;20203;-82
2023/08/29 12:45:54;;;;;;;2.20;1.60;;;23.80;99.90;;;;;;4985951;28;20261;-85
2023/08/29 12:48:26;;;;;;;2.47;1.60;;;23.90;99.90;;;;;;4988297;28;20195;-85
2023/08/29 12:50:53;;;;;;;1.85;1.65;;;23.90;99.90;;;;;;4990483;28;20718;-85
2023/08/29 12:53:20;;;;;;;1.83;1.45;;;23.80;99.90;;;;;;4989526;28;20233;-85
2023/08/29 12:55:47;;;;;;;1.20;0.93;;;23.80;99.90;;;;;;4988098;28;20231;-84